»·PEaware :: SKY216 KPRC-KHII

SKY216 :: KPRC-KHII

FLIGHT INFORMATION

Flight Status: Arrived
Operator:
Sky High Charters
More flights by this operator :: More flights under this callsign
Pilot: Tomas M. (4063)
Aircraft: BEECH AIRCRAFT SUPER KING AIR 350
(B350)
More flights by this aircraft type
Origin: KPRC Love
United States
Destination: KHII Lake Havasu City
United States
More flights between these airports :: More routes between these airports
Route: WNSKI2 MUMTE V12 EED
File this flight plan on PilotEdge
Remarks: scenario 8 leg 1
Altitude:
(Current/Filed)
16,000ft
Speed:
(Current/Filed)
311kts
Departed: 03-Jul-23 02:04 PM
Arrived: 03-Jul-23 02:47 PM
Distance/Time
Traveled:
96nm/0:43
Distance/Time
To Go:
Arrived

Flight Plot

Page will automatically refresh every two minutes.

Flight plan parsing failed; only flown route is shown


Map Options




Map Legend


Flown Route
Filed Route
Departure Airport
Arrival Airport
Navaid (VOR, NDB)
Fix

Horizontal Profiles

Position Reports

Time Latitude Longitude Heading Altitude Ground
Speed
03-Jul-23 13:49 34.646714 -112.424193 308 5025ft 0kts
03-Jul-23 13:50 34.646714 -112.424193 308 5025ft 0kts
03-Jul-23 13:51 34.646714 -112.424193 308 5025ft 0kts
03-Jul-23 13:52 34.646714 -112.424193 308 5025ft 0kts
03-Jul-23 13:53 34.646714 -112.424193 308 5025ft 0kts
03-Jul-23 13:54 34.646714 -112.424193 308 5025ft 0kts
03-Jul-23 13:55 34.646715 -112.424196 308 5025ft 0kts
03-Jul-23 13:56 34.646715 -112.424196 308 5025ft 0kts
03-Jul-23 13:57 34.646715 -112.424196 308 5025ft 0kts
03-Jul-23 13:58 34.649651 -112.422874 40 5011ft 24kts
03-Jul-23 13:59 34.655325 -112.416872 41 4986ft 23kts
03-Jul-23 14:00 34.660248 -112.410954 39 4955ft 27kts
03-Jul-23 14:01 34.661252 -112.410070 310 4950ft 0kts
03-Jul-23 14:02 34.661281 -112.410110 311 4950ft 1kts
03-Jul-23 14:03 34.658820 -112.414892 222 4965ft 90kts
03-Jul-23 14:04 34.633460 -112.438552 219 5645ft 126kts
03-Jul-23 14:05 34.606921 -112.426564 82 6369ft 159kts
03-Jul-23 14:06 34.626855 -112.379340 100 7061ft 164kts
03-Jul-23 14:07 34.597415 -112.334902 135 7623ft 189kts
03-Jul-23 14:08 34.560805 -112.285356 133 8241ft 197kts
03-Jul-23 14:09 34.524163 -112.235395 140 9018ft 200kts
03-Jul-23 14:10 34.494126 -112.265016 272 9906ft 190kts
03-Jul-23 14:11 34.485997 -112.323865 246 11345ft 170kts
03-Jul-23 14:12 34.467555 -112.375255 250 12616ft 173kts
03-Jul-23 14:13 34.455158 -112.432764 261 13761ft 179kts
03-Jul-23 14:14 34.452272 -112.493520 273 14914ft 183kts
03-Jul-23 14:15 34.459823 -112.555314 285 15994ft 189kts
03-Jul-23 14:16 34.480544 -112.620622 298 16035ft 226kts
03-Jul-23 14:17 34.518754 -112.686078 313 16024ft 247kts
03-Jul-23 14:18 34.573096 -112.739634 329 16020ft 255kts
03-Jul-23 14:19 34.640190 -112.773756 346 16023ft 270kts
03-Jul-23 14:20 34.706594 -112.813518 303 16017ft 279kts
03-Jul-23 14:21 34.718708 -112.896139 272 15968ft 284kts
03-Jul-23 14:22 34.722093 -112.993085 272 15909ft 289kts
03-Jul-23 14:23 34.725568 -113.090796 272 15876ft 290kts
03-Jul-23 14:24 34.728991 -113.188582 271 15879ft 290kts
03-Jul-23 14:26 34.732303 -113.286552 271 15883ft 290kts
03-Jul-23 14:27 34.735557 -113.385222 271 15886ft 293kts
03-Jul-23 14:28 34.738752 -113.484258 271 15889ft 293kts
03-Jul-23 14:29 34.741821 -113.581140 271 16231ft 286kts
03-Jul-23 14:30 34.744736 -113.678224 271 16232ft 288kts
03-Jul-23 14:31 34.747627 -113.775904 271 16234ft 290kts
03-Jul-23 14:32 34.750419 -113.873878 271 16237ft 290kts
03-Jul-23 14:33 34.753168 -113.971975 271 16239ft 290kts
03-Jul-23 14:34 34.755855 -114.070461 270 16185ft 292kts
03-Jul-23 14:35 34.758502 -114.169547 270 16084ft 295kts
03-Jul-23 14:36 34.761129 -114.271114 270 15301ft 312kts
03-Jul-23 14:37 34.763826 -114.377339 270 13828ft 316kts
03-Jul-23 14:38 34.766364 -114.479984 270 11224ft 295kts
03-Jul-23 14:39 34.809596 -114.540103 353 9007ft 252kts
03-Jul-23 14:40 34.873021 -114.527636 59 7502ft 243kts
03-Jul-23 14:41 34.838797 -114.483192 185 6804ft 226kts
03-Jul-23 14:42 34.776677 -114.476652 170 6026ft 225kts
03-Jul-23 14:43 34.718109 -114.455129 164 4636ft 215kts
03-Jul-23 14:44 34.666182 -114.432945 152 3082ft 173kts
03-Jul-23 14:45 34.629652 -114.402270 144 2056ft 137kts
03-Jul-23 14:46 34.599427 -114.378344 152 1233ft 117kts
03-Jul-23 14:47 34.573824 -114.360177 150 763ft 33kts
03-Jul-23 14:48 34.568110 -114.358364 217 740ft 15kts
03-Jul-23 14:49 34.567461 -114.358493 13 734ft 0kts
03-Jul-23 14:50 34.567461 -114.358493 13 734ft 0kts
03-Jul-23 14:50 34.567461 -114.358493 13 734ft 0kts

Navigation Log

Ident Type
Flight plan parsing failed, navigation log unavailable